createdAt,value
2019-01-24T00:00:00.311Z,149.20
2019-01-24T00:01:00.471Z,157.00
2019-01-24T00:02:00.640Z,156.40
2019-01-24T00:03:00.811Z,150.80
2019-01-24T00:04:00.961Z,151.00
2019-01-24T00:05:01.119Z,147.80
2019-01-24T00:06:01.289Z,152.40
2019-01-24T00:07:01.455Z,149.80
2019-01-24T00:08:01.627Z,148.60
2019-01-24T00:09:01.787Z,149.90
2019-01-24T00:10:01.955Z,147.40
2019-01-24T00:11:02.127Z,163.80
2019-01-24T00:12:02.292Z,160.30
2019-01-24T00:13:02.462Z,163.20
2019-01-24T00:14:02.638Z,152.20
2019-01-24T00:15:02.796Z,157.30
2019-01-24T00:16:02.957Z,158.50
2019-01-24T00:17:03.128Z,153.00
2019-01-24T00:18:03.282Z,156.60
2019-01-24T00:19:03.459Z,156.60
2019-01-24T00:20:03.623Z,154.30
2019-01-24T00:21:03.788Z,151.30
2019-01-24T00:22:03.970Z,148.90
2019-01-24T00:23:04.134Z,143.50
2019-01-24T00:24:04.288Z,158.90
2019-01-24T00:25:04.451Z,158.60
2019-01-24T00:26:04.630Z,148.80
2019-01-24T00:27:04.798Z,153.70
2019-01-24T00:28:04.960Z,156.90
2019-01-24T00:29:05.129Z,148.20
2019-01-24T00:30:05.303Z,155.40
2019-01-24T00:31:05.462Z,145.90
2019-01-24T00:32:05.626Z,156.50
2019-01-24T00:33:05.798Z,151.80
2019-01-24T00:34:05.958Z,158.60
2019-01-24T00:35:06.122Z,162.80
2019-01-24T00:36:06.287Z,157.90
2019-01-24T00:37:06.453Z,158.30
2019-01-24T00:38:06.619Z,153.10
2019-01-24T00:39:06.787Z,151.50
2019-01-24T00:40:06.957Z,153.10
2019-01-24T00:41:07.125Z,155.00
2019-01-24T00:42:07.288Z,148.70
2019-01-24T00:43:07.456Z,156.40
2019-01-24T00:44:07.663Z,153.60
2019-01-24T00:45:07.809Z,151.80
2019-01-24T00:46:07.978Z,146.20
2019-01-24T00:47:08.145Z,154.10
2019-01-24T00:48:08.317Z,149.80
2019-01-24T00:49:08.485Z,151.50
2019-01-24T00:50:08.649Z,153.60
2019-01-24T00:51:08.827Z,162.50
2019-01-24T00:52:08.987Z,151.70
2019-01-24T00:53:09.150Z,150.10
2019-01-24T00:54:09.312Z,146.30
2019-01-24T00:55:09.480Z,161.30
2019-01-24T00:56:09.660Z,147.70
2019-01-24T00:57:09.810Z,153.50
2019-01-24T00:58:09.982Z,144.40
2019-01-24T00:59:10.146Z,141.80
2019-01-24T01:00:10.315Z,137.30
2019-01-24T01:01:10.482Z,149.90
2019-01-24T01:02:10.648Z,157.50
2019-01-24T01:03:10.844Z,150.90
2019-01-24T01:04:10.996Z,138.60
2019-01-24T01:05:11.152Z,143.30
2019-01-24T01:06:11.318Z,139.10
2019-01-24T01:07:11.490Z,146.10
2019-01-24T01:08:11.654Z,142.90
2019-01-24T01:09:11.829Z,150.80
2019-01-24T01:10:11.987Z,135.30
2019-01-24T01:11:12.148Z,146.10
2019-01-24T01:12:12.322Z,153.80
2019-01-24T01:13:12.487Z,135.80
2019-01-24T01:15:12.816Z,147.70
2019-01-24T01:16:12.982Z,140.80
2019-01-24T01:17:13.409Z,147.60
2019-01-24T01:18:13.326Z,139.10
2019-01-24T01:19:13.488Z,145.20
2019-01-24T01:20:13.653Z,134.90
2019-01-24T01:21:13.820Z,142.90
2019-01-24T01:22:13.992Z,142.40
2019-01-24T01:23:14.153Z,133.80
2019-01-24T01:24:14.321Z,146.20
2019-01-24T01:25:14.485Z,144.00
2019-01-24T01:26:14.665Z,133.50
2019-01-24T01:27:14.819Z,150.40
2019-01-24T01:28:15.002Z,141.90
2019-01-24T01:29:15.165Z,144.40
2019-01-24T01:30:15.330Z,146.70
2019-01-24T01:31:15.498Z,142.70
2019-01-24T01:32:15.667Z,141.70
2019-01-24T01:33:15.830Z,145.80
2019-01-24T01:34:15.993Z,130.60
2019-01-24T01:35:16.160Z,140.60
2019-01-24T01:36:16.347Z,142.80
2019-01-24T01:37:16.488Z,143.60
2019-01-24T01:38:17.509Z,145.70
2019-01-24T01:39:16.819Z,144.10
2019-01-24T01:40:17.001Z,143.40
2019-01-24T01:41:17.154Z,139.00
2019-01-24T01:42:17.316Z,141.80
2019-01-24T01:43:17.483Z,131.80
2019-01-24T01:44:17.650Z,144.20
2019-01-24T01:45:17.814Z,130.90
2019-01-24T01:46:18.002Z,139.60
2019-01-24T01:47:18.166Z,139.40
2019-01-24T01:48:18.341Z,136.20
2019-01-24T01:49:18.500Z,137.60
2019-01-24T01:50:18.677Z,135.60
2019-01-24T01:51:18.828Z,132.40
2019-01-24T01:52:19.003Z,139.60
2019-01-24T01:53:19.169Z,139.30
2019-01-24T01:54:19.336Z,139.30
2019-01-24T01:55:19.503Z,134.00
2019-01-24T01:56:19.714Z,146.00
2019-01-24T01:57:19.921Z,129.40
2019-01-24T01:58:20.054Z,137.20
2019-01-24T01:59:20.218Z,140.90
2019-01-24T02:00:20.390Z,138.20
2019-01-24T02:01:20.548Z,137.00
2019-01-24T02:02:20.710Z,140.30
2019-01-24T02:03:20.872Z,138.90
2019-01-24T02:04:21.037Z,134.10
2019-01-24T02:05:21.233Z,139.40
2019-01-24T02:06:21.371Z,151.10
2019-01-24T02:07:21.537Z,139.90
2019-01-24T02:08:21.699Z,140.10
2019-01-24T02:09:21.873Z,133.70
2019-01-24T02:10:22.740Z,141.90
2019-01-24T02:11:22.198Z,148.00
2019-01-24T02:12:22.377Z,136.70
2019-01-24T02:13:22.531Z,139.90
2019-01-24T02:14:22.680Z,135.40
2019-01-24T02:15:22.847Z,141.30
2019-01-24T02:16:23.004Z,144.70
2019-01-24T02:17:23.155Z,136.70
2019-01-24T02:18:23.326Z,136.80
2019-01-24T02:19:23.497Z,139.30
2019-01-24T02:20:23.666Z,137.40
2019-01-24T02:21:23.837Z,141.60
2019-01-24T02:22:24.003Z,138.70
2019-01-24T02:23:24.156Z,134.40
2019-01-24T02:24:24.331Z,140.40
2019-01-24T02:25:24.482Z,143.20
2019-01-24T02:26:24.649Z,137.20
2019-01-24T02:27:24.830Z,135.40
2019-01-24T02:28:24.991Z,139.60
2019-01-24T02:29:25.159Z,142.70
2019-01-24T02:30:25.328Z,130.60
2019-01-24T02:31:25.492Z,126.00
2019-01-24T02:32:25.653Z,136.60
2019-01-24T02:33:25.837Z,131.20
2019-01-24T02:34:25.983Z,131.80
2019-01-24T02:35:26.158Z,125.30
2019-01-24T02:36:26.329Z,129.60
2019-01-24T02:37:26.494Z,133.20
2019-01-24T02:38:26.665Z,124.10
2019-01-24T02:39:26.829Z,122.90
2019-01-24T02:40:27.017Z,120.80
2019-01-24T02:41:27.166Z,130.10
2019-01-24T02:42:27.334Z,120.40
2019-01-24T02:43:27.501Z,120.40
2019-01-24T02:44:27.669Z,123.90
2019-01-24T02:45:27.836Z,121.00
2019-01-24T02:46:28.002Z,122.80
2019-01-24T02:47:28.173Z,120.40
2019-01-24T02:48:28.335Z,119.80
2019-01-24T02:49:28.501Z,120.60
2019-01-24T02:50:28.664Z,122.70
2019-01-24T02:51:28.832Z,116.10
2019-01-24T02:52:28.997Z,114.50
2019-01-24T02:53:29.172Z,114.80
2019-01-24T02:54:29.322Z,113.00
2019-01-24T02:55:29.488Z,118.60
2019-01-24T02:56:29.661Z,109.40
2019-01-24T02:57:29.826Z,112.00
2019-01-24T02:58:29.988Z,120.40
2019-01-24T02:59:30.151Z,103.40
2019-01-24T03:00:30.335Z,106.30
2019-01-24T03:01:30.498Z,113.50
2019-01-24T03:02:30.665Z,107.10
2019-01-24T03:03:30.829Z,114.20
2019-01-24T03:04:31.004Z,116.60
2019-01-24T03:05:31.147Z,115.10
2019-01-24T03:06:31.333Z,108.10
2019-01-24T03:07:31.490Z,107.90
2019-01-24T03:08:31.662Z,112.70
2019-01-24T03:09:31.822Z,107.70
2019-01-24T03:10:31.998Z,109.00
2019-01-24T03:11:32.167Z,110.70
2019-01-24T03:12:32.334Z,121.80
2019-01-24T03:13:32.500Z,119.00
2019-01-24T03:14:32.674Z,113.30
2019-01-24T03:15:32.833Z,115.80
2019-01-24T03:16:33.000Z,117.30
2019-01-24T03:17:33.165Z,114.80
2019-01-24T03:18:33.336Z,117.40
2019-01-24T03:19:33.507Z,112.90
2019-01-24T03:20:33.673Z,109.40
2019-01-24T03:21:33.844Z,106.50
2019-01-24T03:22:34.007Z,109.70
2019-01-24T03:23:34.173Z,117.00
2019-01-24T03:24:34.343Z,113.40
2019-01-24T03:25:34.511Z,114.40
2019-01-24T03:26:34.675Z,113.30
2019-01-24T03:27:34.849Z,114.40
2019-01-24T03:29:35.166Z,113.80
2019-01-24T03:30:35.347Z,110.80
2019-01-24T03:31:35.510Z,110.40
2019-01-24T03:32:35.685Z,113.80
2019-01-24T03:33:35.860Z,114.30
2019-01-24T03:34:36.008Z,108.70
2019-01-24T03:35:36.198Z,109.70
2019-01-24T03:36:36.350Z,103.40
2019-01-24T03:37:36.504Z,110.00
2019-01-24T03:38:36.677Z,115.70
2019-01-24T03:39:36.840Z,108.80
2019-01-24T03:40:37.021Z,111.40
2019-01-24T03:41:37.182Z,108.60
2019-01-24T03:42:37.353Z,114.00
2019-01-24T03:43:37.516Z,108.00
2019-01-24T03:44:37.678Z,105.70
2019-01-24T03:45:37.852Z,111.30
2019-01-24T03:46:38.026Z,108.50
2019-01-24T03:47:38.192Z,108.10
2019-01-24T03:48:38.356Z,112.70
2019-01-24T03:49:38.528Z,106.10
2019-01-24T03:50:38.691Z,103.10
2019-01-24T03:51:38.855Z,105.20
2019-01-24T03:52:39.020Z,112.60
2019-01-24T03:53:39.200Z,108.50
2019-01-24T03:54:39.349Z,115.40
2019-01-24T03:55:39.546Z,109.60
2019-01-24T03:56:39.677Z,113.20
2019-01-24T03:57:39.842Z,108.50
2019-01-24T03:58:40.009Z,108.20
2019-01-24T03:59:40.184Z,116.10
2019-01-24T04:00:40.348Z,112.40
2019-01-24T04:01:40.514Z,113.30
2019-01-24T04:02:40.675Z,107.00
2019-01-24T04:03:40.837Z,115.50
2019-01-24T04:04:41.010Z,111.40
2019-01-24T04:05:41.183Z,112.00
2019-01-24T04:06:41.361Z,105.10
2019-01-24T04:07:41.550Z,112.30
2019-01-24T04:08:41.686Z,108.00
2019-01-24T04:09:41.848Z,107.10
2019-01-24T04:10:42.014Z,117.90
2019-01-24T04:11:42.184Z,110.10
2019-01-24T04:12:42.353Z,109.20
2019-01-24T04:13:42.512Z,106.70
2019-01-24T04:14:42.679Z,112.00
2019-01-24T04:15:42.843Z,108.20
2019-01-24T04:16:43.011Z,108.20
2019-01-24T04:17:43.178Z,111.00
2019-01-24T04:18:43.341Z,113.00
2019-01-24T04:19:43.501Z,110.40
2019-01-24T04:20:43.677Z,114.60
2019-01-24T04:21:43.836Z,112.80
2019-01-24T04:22:44.024Z,113.20
2019-01-24T04:23:44.168Z,106.20
2019-01-24T04:24:44.332Z,108.10
2019-01-24T04:25:44.490Z,112.00
2019-01-24T04:26:44.660Z,114.60
2019-01-24T04:27:44.832Z,113.20
2019-01-24T04:28:44.978Z,111.30
2019-01-24T04:29:45.158Z,113.10
2019-01-24T04:30:45.324Z,113.80
2019-01-24T04:31:45.506Z,116.10
2019-01-24T04:32:45.657Z,114.20
2019-01-24T04:33:45.842Z,114.00
2019-01-24T04:34:46.081Z,121.20
2019-01-24T04:35:46.198Z,114.20
2019-01-24T04:36:46.332Z,106.30
2019-01-24T04:37:46.538Z,111.30
2019-01-24T04:38:46.665Z,116.40
2019-01-24T04:39:46.827Z,114.10
2019-01-24T04:40:47.015Z,114.40
2019-01-24T04:41:47.154Z,114.00
2019-01-24T04:42:47.355Z,115.20
2019-01-24T04:43:47.482Z,115.20
2019-01-24T04:45:47.799Z,118.00
2019-01-24T04:46:47.958Z,119.50
2019-01-24T04:47:48.157Z,116.10
2019-01-24T04:48:48.291Z,111.90
2019-01-24T04:49:48.474Z,120.00
2019-01-24T04:50:48.642Z,114.50
2019-01-24T04:51:48.802Z,111.40
2019-01-24T04:52:48.981Z,113.50
2019-01-24T04:53:49.141Z,117.10
2019-01-24T04:54:49.303Z,115.00
2019-01-24T04:55:49.466Z,123.20
2019-01-24T04:56:49.627Z,117.50
2019-01-24T04:57:49.792Z,113.90
2019-01-24T04:58:49.966Z,113.50
2019-01-24T04:59:50.113Z,116.70
2019-01-24T05:00:50.285Z,107.80
2019-01-24T05:01:50.445Z,113.70
2019-01-24T05:02:50.627Z,110.50
2019-01-24T05:03:50.777Z,105.40
2019-01-24T05:04:50.960Z,113.00
2019-01-24T05:05:51.751Z,114.30
2019-01-24T05:06:51.316Z,112.90
2019-01-24T05:07:51.489Z,114.20
2019-01-24T05:08:51.652Z,112.10
2019-01-24T05:09:51.820Z,115.00
2019-01-24T05:10:51.984Z,117.70
2019-01-24T05:11:52.152Z,119.90
2019-01-24T05:12:52.316Z,113.50
2019-01-24T05:13:52.483Z,117.20
2019-01-24T05:14:52.651Z,111.40
2019-01-24T05:15:52.810Z,108.80
2019-01-24T05:16:52.989Z,112.00
2019-01-24T05:17:53.161Z,110.40
2019-01-24T05:18:53.309Z,109.20
2019-01-24T05:19:53.485Z,108.30
2019-01-24T05:20:53.654Z,110.70
2019-01-24T05:21:53.821Z,111.20
2019-01-24T05:22:54.001Z,108.00
2019-01-24T05:23:54.143Z,114.90
2019-01-24T05:24:54.309Z,114.70
2019-01-24T05:25:54.469Z,111.70
2019-01-24T05:26:54.650Z,109.80
2019-01-24T05:27:54.808Z,113.70
2019-01-24T05:28:54.984Z,111.90
2019-01-24T05:29:55.133Z,110.20
2019-01-24T05:30:55.323Z,110.50
2019-01-24T05:31:55.488Z,112.00
2019-01-24T05:32:55.653Z,115.60
2019-01-24T05:33:55.818Z,109.50
2019-01-24T05:34:55.985Z,112.80
2019-01-24T05:35:56.161Z,120.10
2019-01-24T05:36:56.322Z,112.70
2019-01-24T05:37:56.482Z,107.70
2019-01-24T05:38:56.648Z,105.70
2019-01-24T05:39:56.824Z,116.30
2019-01-24T05:40:56.978Z,108.20
2019-01-24T05:41:57.146Z,109.60
2019-01-24T05:42:57.312Z,102.60
2019-01-24T05:43:57.478Z,110.50
2019-01-24T05:44:57.645Z,108.10
2019-01-24T05:45:57.815Z,113.10
2019-01-24T05:46:57.982Z,106.40
2019-01-24T05:47:58.143Z,113.00
2019-01-24T05:48:58.318Z,104.90
2019-01-24T05:49:58.493Z,104.70
2019-01-24T05:50:58.664Z,109.90
2019-01-24T05:51:58.816Z,106.10
2019-01-24T05:52:58.997Z,106.00
2019-01-24T05:53:59.161Z,108.50
2019-01-24T05:54:59.328Z,108.10
2019-01-24T05:55:59.510Z,114.30
2019-01-24T05:56:59.663Z,106.20
2019-01-24T05:57:59.826Z,105.60
2019-01-24T05:59:00.001Z,106.80
2019-01-24T06:00:00.187Z,102.30
2019-01-24T06:01:00.337Z,108.70
2019-01-24T06:02:00.477Z,104.40
2019-01-24T06:03:00.643Z,102.10
2019-01-24T06:04:00.835Z,108.70
2019-01-24T06:05:01.003Z,107.90
2019-01-24T06:06:01.174Z,107.90
2019-01-24T06:07:01.330Z,113.70
2019-01-24T06:08:01.501Z,110.30
2019-01-24T06:09:01.666Z,101.10
2019-01-24T06:10:01.829Z,102.00
2019-01-24T06:11:01.993Z,103.70
2019-01-24T06:12:02.191Z,112.90
2019-01-24T06:13:02.335Z,107.40
2019-01-24T06:14:02.505Z,108.10
2019-01-24T06:15:02.673Z,103.10
2019-01-24T06:16:02.839Z,108.90
2019-01-24T06:17:02.999Z,105.50
2019-01-24T06:18:03.177Z,103.50
2019-01-24T06:19:03.338Z,107.70
2019-01-24T06:20:03.508Z,104.50
2019-01-24T06:21:03.685Z,103.20
2019-01-24T06:22:03.851Z,101.20
2019-01-24T06:23:04.042Z,106.20
2019-01-24T06:24:04.165Z,100.30
2019-01-24T06:25:04.326Z,111.40
2019-01-24T06:26:04.493Z,103.20
2019-01-24T06:27:04.653Z,103.30
2019-01-24T06:28:04.819Z,105.30
2019-01-24T06:29:04.980Z,100.50
2019-01-24T06:30:05.154Z,105.00
2019-01-24T06:31:05.321Z,109.60
2019-01-24T06:32:05.487Z,102.00
2019-01-24T06:33:05.664Z,114.70
2019-01-24T06:34:05.819Z,106.60
2019-01-24T06:35:05.984Z,104.30
2019-01-24T06:36:06.182Z,105.80
2019-01-24T06:37:06.310Z,112.60
2019-01-24T06:38:06.477Z,110.60
2019-01-24T06:39:06.641Z,105.60
2019-01-24T06:40:06.816Z,106.80
2019-01-24T06:41:06.975Z,108.90
2019-01-24T06:42:07.141Z,103.20
2019-01-24T06:43:07.307Z,110.00
2019-01-24T06:44:07.473Z,106.70
2019-01-24T06:45:07.640Z,112.30
2019-01-24T06:46:07.808Z,106.20
2019-01-24T06:47:07.975Z,106.30
2019-01-24T06:48:08.141Z,104.80
2019-01-24T06:49:08.302Z,110.40
2019-01-24T06:50:08.469Z,109.40
2019-01-24T06:51:08.644Z,106.70
2019-01-24T06:52:08.832Z,103.20
2019-01-24T06:53:08.998Z,114.60
2019-01-24T06:54:09.155Z,107.60
2019-01-24T06:55:09.328Z,110.60
2019-01-24T06:56:09.494Z,107.50
2019-01-24T06:57:09.665Z,104.80
2019-01-24T06:58:09.835Z,107.20
2019-01-24T06:59:10.001Z,102.30
2019-01-24T07:00:10.164Z,109.40
2019-01-24T07:01:10.321Z,100.20
2019-01-24T07:02:10.493Z,113.00
2019-01-24T07:03:10.667Z,105.90
2019-01-24T07:04:10.821Z,100.30
2019-01-24T07:05:10.995Z,102.00
2019-01-24T07:06:11.157Z,106.20
2019-01-24T07:07:11.321Z,100.70
2019-01-24T07:08:11.479Z,106.80
2019-01-24T07:09:11.654Z,104.00
2019-01-24T07:10:11.876Z,107.20
2019-01-24T07:11:12.039Z,111.30
2019-01-24T07:12:12.202Z,106.80
2019-01-24T07:13:12.359Z,107.30
2019-01-24T07:14:12.509Z,105.50
2019-01-24T07:15:12.669Z,101.90
2019-01-24T07:16:12.850Z,112.90
2019-01-24T07:17:13.014Z,109.00
2019-01-24T07:18:13.164Z,106.50
2019-01-24T07:19:13.333Z,100.00
2019-01-24T07:20:13.494Z,108.90
2019-01-24T07:21:13.661Z,105.60
2019-01-24T07:22:13.830Z,102.80
2019-01-24T07:24:14.134Z,104.40
2019-01-24T07:25:14.303Z,105.60
2019-01-24T07:26:14.459Z,103.10
2019-01-24T07:27:14.626Z,104.80
2019-01-24T07:28:14.780Z,100.50
2019-01-24T07:29:14.947Z,106.70
2019-01-24T07:30:15.132Z,103.90
2019-01-24T07:31:15.280Z,104.70
2019-01-24T07:32:15.447Z,108.10
2019-01-24T07:33:15.615Z,111.00
2019-01-24T07:34:15.782Z,99.80
2019-01-24T07:35:15.945Z,101.20
2019-01-24T07:36:16.116Z,106.60
2019-01-24T07:37:16.278Z,104.30
2019-01-24T07:38:16.453Z,104.50
2019-01-24T07:39:16.615Z,98.00
2019-01-24T07:40:16.789Z,110.70
2019-01-24T07:41:16.942Z,102.30
2019-01-24T07:42:17.098Z,100.80
2019-01-24T07:43:17.265Z,112.00
2019-01-24T07:44:17.430Z,103.20
2019-01-24T07:45:17.592Z,110.20
2019-01-24T07:46:17.768Z,105.40
2019-01-24T07:47:17.940Z,105.30
2019-01-24T07:48:18.120Z,101.60
2019-01-24T07:49:18.273Z,103.90
2019-01-24T07:50:18.434Z,101.00
2019-01-24T07:51:18.600Z,110.60
2019-01-24T07:52:18.768Z,107.30
2019-01-24T07:53:18.930Z,101.30
2019-01-24T07:54:19.103Z,99.80
2019-01-24T07:55:19.272Z,371.30
2019-01-24T07:56:19.448Z,113.20
2019-01-24T07:57:19.604Z,102.30
2019-01-24T07:58:19.773Z,96.30
2019-01-24T07:59:19.939Z,107.40
2019-01-24T08:00:20.833Z,95.60
2019-01-24T08:01:20.764Z,108.20
2019-01-24T08:02:20.412Z,119.80
2019-01-24T08:03:20.578Z,108.30
2019-01-24T08:04:20.748Z,109.60
2019-01-24T08:05:20.917Z,108.20
2019-01-24T08:06:21.086Z,115.90
2019-01-24T08:07:21.246Z,110.80
2019-01-24T08:08:21.458Z,116.00
2019-01-24T08:09:21.584Z,104.50
2019-01-24T08:10:21.758Z,107.50
2019-01-24T08:11:21.912Z,107.40
2019-01-24T08:12:22.075Z,107.50
2019-01-24T08:13:22.242Z,108.00
2019-01-24T08:14:22.409Z,105.30
2019-01-24T08:15:22.574Z,102.60
2019-01-24T08:16:22.714Z,108.40
2019-01-24T08:17:22.884Z,107.60
2019-01-24T08:18:23.056Z,102.40
2019-01-24T08:19:23.220Z,107.00
2019-01-24T08:20:23.382Z,107.60
2019-01-24T08:21:23.579Z,104.50
2019-01-24T08:22:23.714Z,109.60
2019-01-24T08:23:23.877Z,119.60
2019-01-24T08:24:24.038Z,113.10
2019-01-24T08:25:24.214Z,109.90
2019-01-24T08:26:24.374Z,113.60
2019-01-24T08:27:24.536Z,104.10
2019-01-24T08:28:24.707Z,104.80
2019-01-24T08:29:24.869Z,106.50
2019-01-24T08:30:25.038Z,115.30
2019-01-24T08:31:25.207Z,104.80
2019-01-24T08:32:25.376Z,110.10
2019-01-24T08:33:25.551Z,101.40
2019-01-24T08:34:25.704Z,106.50
2019-01-24T08:35:25.868Z,106.10
2019-01-24T08:36:26.039Z,106.90
2019-01-24T08:37:26.209Z,109.20
2019-01-24T08:38:26.374Z,103.10
2019-01-24T08:39:26.548Z,111.30
2019-01-24T08:40:26.705Z,106.80
2019-01-24T08:41:26.872Z,97.80
2019-01-24T08:42:27.040Z,108.00
2019-01-24T08:43:27.220Z,107.90
2019-01-24T08:44:27.383Z,106.00
2019-01-24T08:45:27.529Z,106.60
2019-01-24T08:46:27.688Z,106.00
2019-01-24T08:47:27.856Z,102.70
2019-01-24T08:48:28.022Z,104.10
2019-01-24T08:49:28.208Z,100.90
2019-01-24T08:50:28.377Z,108.90
2019-01-24T08:51:28.536Z,113.90
2019-01-24T08:52:28.709Z,100.50
2019-01-24T08:53:28.898Z,105.10
2019-01-24T08:54:29.044Z,104.50
2019-01-24T08:55:29.226Z,103.90
2019-01-24T08:56:29.378Z,104.30
2019-01-24T08:57:29.564Z,109.20
2019-01-24T08:58:29.725Z,104.60
2019-01-24T08:59:29.973Z,103.90
2019-01-24T09:00:30.050Z,107.70
2019-01-24T09:01:30.219Z,102.80
2019-01-24T09:02:30.385Z,101.60
2019-01-24T09:03:30.567Z,102.00
2019-01-24T09:04:30.732Z,103.60
2019-01-24T09:05:30.924Z,111.20
2019-01-24T09:06:31.060Z,104.10
2019-01-24T09:07:31.214Z,104.00
2019-01-24T09:08:31.394Z,103.70
2019-01-24T09:09:31.554Z,103.20
2019-01-24T09:10:31.725Z,114.20
2019-01-24T09:11:31.895Z,103.80
2019-01-24T09:12:32.066Z,111.90
2019-01-24T09:13:32.228Z,110.10
2019-01-24T09:14:32.392Z,103.90
2019-01-24T09:15:32.554Z,106.10
2019-01-24T09:16:32.709Z,101.40
2019-01-24T09:17:32.871Z,108.80
2019-01-24T09:18:33.079Z,119.50
2019-01-24T09:19:33.220Z,107.90
2019-01-24T09:20:33.382Z,113.50
2019-01-24T09:21:33.546Z,114.80
2019-01-24T09:22:33.721Z,112.90
2019-01-24T09:23:33.881Z,119.70
2019-01-24T09:24:34.051Z,113.80
2019-01-24T09:25:34.219Z,110.50
2019-01-24T09:26:34.387Z,102.20
2019-01-24T09:27:34.552Z,113.40
2019-01-24T09:28:34.733Z,112.40
2019-01-24T09:29:34.895Z,109.40
2019-01-24T09:30:35.050Z,102.70
2019-01-24T09:31:35.215Z,104.50
2019-01-24T09:32:35.384Z,105.60
2019-01-24T09:33:35.543Z,105.60
2019-01-24T09:34:35.718Z,108.30
2019-01-24T09:35:35.876Z,98.50
2019-01-24T09:36:36.041Z,111.90
2019-01-24T09:37:36.211Z,104.50
2019-01-24T09:38:36.383Z,102.50
2019-01-24T09:39:36.549Z,108.90
2019-01-24T09:40:36.722Z,107.80
2019-01-24T09:41:36.889Z,106.10
2019-01-24T09:42:37.062Z,105.30
2019-01-24T09:43:37.230Z,101.80
2019-01-24T09:44:37.403Z,104.30
2019-01-24T09:45:37.553Z,104.00
2019-01-24T09:46:37.725Z,97.50
2019-01-24T09:47:37.876Z,98.70
2019-01-24T09:48:38.070Z,96.20
2019-01-24T09:49:38.207Z,103.00
2019-01-24T09:50:38.398Z,104.30
2019-01-24T09:51:38.552Z,105.60
2019-01-24T09:52:38.722Z,103.90
2019-01-24T09:53:38.882Z,102.10
2019-01-24T09:54:39.056Z,91.30
2019-01-24T09:55:39.216Z,104.00
2019-01-24T09:56:39.395Z,105.30
2019-01-24T09:57:39.548Z,98.60
2019-01-24T09:58:39.709Z,103.70
2019-01-24T09:59:39.904Z,95.80
2019-01-24T10:00:40.046Z,101.60
2019-01-24T10:01:40.211Z,98.80
2019-01-24T10:02:40.375Z,107.70
2019-01-24T10:03:40.556Z,99.00
2019-01-24T10:04:40.732Z,96.10
2019-01-24T10:05:40.902Z,100.50
2019-01-24T10:06:41.072Z,103.10
2019-01-24T10:07:41.248Z,103.30
2019-01-24T10:08:41.395Z,107.50
2019-01-24T10:09:41.580Z,103.70
2019-01-24T10:10:41.740Z,106.00
2019-01-24T10:11:41.911Z,96.50
2019-01-24T10:12:42.077Z,95.00
2019-01-24T10:13:42.254Z,97.40
2019-01-24T10:14:42.419Z,95.20
2019-01-24T10:15:42.591Z,97.80
2019-01-24T10:16:42.751Z,102.00
2019-01-24T10:17:42.915Z,96.80
2019-01-24T10:18:43.085Z,95.40
2019-01-24T10:19:43.252Z,97.70
2019-01-24T10:20:43.423Z,96.30
2019-01-24T10:21:43.597Z,94.40
2019-01-24T10:22:43.761Z,103.40
2019-01-24T10:23:43.955Z,100.70
2019-01-24T10:24:44.116Z,106.40
2019-01-24T10:25:44.268Z,99.50
2019-01-24T10:26:44.434Z,91.20
2019-01-24T10:27:44.598Z,105.80
2019-01-24T10:28:44.771Z,102.30
2019-01-24T10:29:44.934Z,96.60
2019-01-24T10:30:45.099Z,100.80
2019-01-24T10:31:46.469Z,96.20
2019-01-24T10:32:45.466Z,97.30
2019-01-24T10:33:45.615Z,100.30
2019-01-24T10:34:46.698Z,95.20
2019-01-24T10:35:45.960Z,95.40
2019-01-24T10:36:46.114Z,97.90
2019-01-24T10:37:46.266Z,100.40
2019-01-24T10:38:46.471Z,99.90
2019-01-24T10:39:46.641Z,97.70
2019-01-24T10:40:46.837Z,97.70
2019-01-24T10:41:46.997Z,98.50
2019-01-24T10:42:47.178Z,90.80
2019-01-24T10:43:47.356Z,90.20
2019-01-24T10:44:47.521Z,96.20
2019-01-24T10:45:47.693Z,99.20
2019-01-24T10:46:47.850Z,92.90
2019-01-24T10:47:48.026Z,92.40
2019-01-24T10:48:48.182Z,89.60
2019-01-24T10:49:48.335Z,92.30
2019-01-24T10:50:48.506Z,95.90
2019-01-24T10:51:48.664Z,99.50
2019-01-24T10:52:49.782Z,89.80
2019-01-24T10:53:49.033Z,103.10
2019-01-24T10:54:49.195Z,94.80
2019-01-24T10:55:49.366Z,93.60
2019-01-24T10:56:49.546Z,97.50
2019-01-24T10:57:49.711Z,103.80
2019-01-24T10:58:49.890Z,99.80
2019-01-24T10:59:50.050Z,96.60
2019-01-24T11:00:50.246Z,94.10
2019-01-24T11:01:50.367Z,89.00
2019-01-24T11:02:50.536Z,91.70
2019-01-24T11:03:50.717Z,88.30
2019-01-24T11:04:50.878Z,91.50
2019-01-24T11:05:51.041Z,91.00
2019-01-24T11:06:51.217Z,91.40
2019-01-24T11:07:51.662Z,92.80
2019-01-24T11:08:51.754Z,96.10
2019-01-24T11:09:51.828Z,90.20
2019-01-24T11:10:52.048Z,91.00
2019-01-24T11:11:52.053Z,87.60
2019-01-24T11:12:52.301Z,85.90
2019-01-24T11:13:52.571Z,85.70
2019-01-24T11:14:52.679Z,90.40
2019-01-24T11:15:53.072Z,92.00
2019-01-24T11:16:53.102Z,86.70
2019-01-24T11:17:53.298Z,93.50
2019-01-24T11:18:53.429Z,83.50
2019-01-24T11:19:53.950Z,91.30
2019-01-24T11:20:55.050Z,97.00
2019-01-24T11:21:53.938Z,90.30
2019-01-24T11:22:54.076Z,106.80
2019-01-24T11:23:54.200Z,98.10
2019-01-24T11:24:54.397Z,96.70
2019-01-24T11:25:54.562Z,96.50
2019-01-24T11:26:54.734Z,107.70
2019-01-24T11:27:54.893Z,88.70
2019-01-24T11:28:55.112Z,91.90
2019-01-24T11:29:55.238Z,106.50
2019-01-24T11:30:55.443Z,92.40
2019-01-24T11:31:55.587Z,94.60
2019-01-24T11:32:55.753Z,91.30
2019-01-24T11:33:55.933Z,94.60
2019-01-24T11:34:56.098Z,92.80
2019-01-24T11:35:56.273Z,91.50
2019-01-24T11:36:57.163Z,102.60
2019-01-24T11:37:56.584Z,97.00
2019-01-24T11:38:56.747Z,88.30
2019-01-24T11:39:56.932Z,83.90
2019-01-24T11:40:57.079Z,86.40
2019-01-24T11:41:57.263Z,90.60
2019-01-24T11:42:57.475Z,91.70
2019-01-24T11:43:57.600Z,96.70
2019-01-24T11:45:57.926Z,85.90
2019-01-24T11:46:58.091Z,82.50
2019-01-24T11:47:58.285Z,89.80
2019-01-24T11:48:58.411Z,91.20
2019-01-24T11:49:58.572Z,89.60
2019-01-24T11:50:58.751Z,91.30
2019-01-24T11:51:58.916Z,84.40
2019-01-24T11:52:59.089Z,89.10
2019-01-24T11:53:59.247Z,88.70
2019-01-24T11:54:59.412Z,87.00
2019-01-24T11:55:59.567Z,95.70
2019-01-24T11:56:59.738Z,88.20
2019-01-24T11:57:59.902Z,89.90
2019-01-24T11:59:00.084Z,88.60
2019-01-24T12:00:00.291Z,89.50
2019-01-24T12:01:00.410Z,90.20
2019-01-24T12:02:00.573Z,86.00
2019-01-24T12:03:00.728Z,89.20
2019-01-24T12:04:00.888Z,83.80
2019-01-24T12:05:01.069Z,90.20
2019-01-24T12:06:01.231Z,92.30
2019-01-24T12:07:04.277Z,88.70
2019-01-24T12:08:01.545Z,96.00
2019-01-24T12:09:01.749Z,84.30
2019-01-24T12:10:01.860Z,88.90
2019-01-24T12:11:02.027Z,93.20
2019-01-24T12:13:02.349Z,90.60
2019-01-24T12:14:02.516Z,89.70
2019-01-24T12:15:02.681Z,91.90
2019-01-24T12:16:02.880Z,89.00
2019-01-24T12:17:03.054Z,88.00
2019-01-24T12:18:03.193Z,94.20
2019-01-24T12:19:03.391Z,87.00
2019-01-24T12:20:03.512Z,93.40
2019-01-24T12:21:03.689Z,90.50
2019-01-24T12:22:03.852Z,86.50
2019-01-24T12:23:04.023Z,84.30
2019-01-24T12:24:04.194Z,93.30
2019-01-24T12:25:04.372Z,88.30
2019-01-24T12:26:04.508Z,93.20
2019-01-24T12:27:04.669Z,81.60
2019-01-24T12:28:04.874Z,89.10
2019-01-24T12:29:05.017Z,89.90
2019-01-24T12:30:05.192Z,89.80
2019-01-24T12:31:05.369Z,84.00
2019-01-24T12:32:05.531Z,90.40
2019-01-24T12:33:05.706Z,85.80
2019-01-24T12:34:05.851Z,83.90
2019-01-24T12:35:06.007Z,81.70
2019-01-24T12:36:06.270Z,86.80
2019-01-24T12:37:11.258Z,95.10
2019-01-24T12:38:06.531Z,87.80
2019-01-24T12:39:06.747Z,89.80
2019-01-24T12:40:06.885Z,91.60
2019-01-24T12:41:07.024Z,83.10